Time;durP1;ratioP1;P1;durP2;ratioP2;P2;SDS_P1;SDS_P2;PMS_P1;PMS_P2;Temp;Humidity;BMP_temperature;BMP_pressure;BME280_temperature;BME280_humidity;BME280_pressure;Samples;Min_cycle;Max_cycle;Signal;HPM_P1;HPM_P2
2022/05/28 00:00:25;;;;;;;;;;;13.40;99.90;;;;;;5072689;28;19943;-54
2022/05/28 00:02:51;;;;;;;;;;;13.40;99.90;;;;;;5083892;28;19908;-56
2022/05/28 00:05:16;;;;;;;;;;;13.30;99.90;;;;;;5071720;28;19911;-51
2022/05/28 00:07:42;;;;;;;;;;;13.40;99.90;;;;;;5080613;28;20370;-56
2022/05/28 00:10:09;;;;;;;;;;;13.50;99.90;;;;;;5079648;28;20265;-53
2022/05/28 00:12:35;;;;;;;;;;;13.50;99.90;;;;;;5052796;28;20318;-51
2022/05/28 00:15:00;;;;;;;;;;;13.50;99.90;;;;;;5087852;28;19916;-54
2022/05/28 00:17:26;;;;;;;;;;;13.40;99.90;;;;;;5092223;28;19908;-54
2022/05/28 00:19:51;;;;;;;;;;;13.40;99.90;;;;;;5088942;28;19912;-55
2022/05/28 00:22:17;;;;;;;;;;;13.30;99.90;;;;;;5091134;28;19904;-51
2022/05/28 00:24:43;;;;;;;;;;;13.40;99.90;;;;;;5092016;28;19912;-51
2022/05/28 00:27:08;;;;;;;;;;;13.40;99.90;;;;;;5083895;28;20413;-53
2022/05/28 00:29:34;;;;;;;;;;;13.40;99.90;;;;;;5072074;28;19909;-52
2022/05/28 00:31:59;;;;;;;;;;;13.40;99.90;;;;;;5088583;28;19908;-53
2022/05/28 00:34:25;;;;;;;;;;;13.40;99.90;;;;;;5078854;28;19913;-52
2022/05/28 00:36:51;;;;;;;;;;;13.50;99.90;;;;;;5085526;28;19911;-53
2022/05/28 00:39:16;;;;;;;;;;;13.40;99.90;;;;;;5090234;28;19931;-54
2022/05/28 00:41:42;;;;;;;;;;;13.40;99.90;;;;;;5077728;28;20007;-55
2022/05/28 00:44:09;;;;;;;;;;;13.40;99.90;;;;;;5088253;28;20052;-51
2022/05/28 00:46:35;;;;;;;;;;;13.40;99.90;;;;;;5058649;28;20332;-51
2022/05/28 00:49:03;;;;;;;;;;;13.40;99.90;;;;;;5071581;28;19978;-54
2022/05/28 00:51:30;;;;;;;;;;;13.40;99.90;;;;;;5072031;28;19905;-54
2022/05/28 00:53:58;;;;;;;;;;;13.30;99.90;;;;;;5073162;28;19915;-49
2022/05/28 00:56:24;;;;;;;;;;;13.30;99.90;;;;;;5072565;28;19920;-54
2022/05/28 00:58:50;;;;;;;;;;;13.30;99.90;;;;;;5078449;28;19908;-54
2022/05/28 01:01:19;;;;;;;;;;;13.30;99.90;;;;;;5071009;28;20428;-51
2022/05/28 01:03:44;;;;;;;;;;;13.30;99.90;;;;;;5083052;28;19916;-51
2022/05/28 01:06:18;;;;;;;;;;;13.30;99.90;;;;;;5071951;28;19913;-52
2022/05/28 01:08:49;;;;;;;;;;;13.30;99.90;;;;;;5070942;28;19900;-55
2022/05/28 01:11:20;;;;;;;;;;;13.20;99.90;;;;;;5084816;28;19912;-48
2022/05/28 01:13:58;;;;;;;;;;;13.20;99.90;;;;;;5091495;28;19908;-51
2022/05/28 01:16:38;;;;;;;;;;;13.20;99.90;;;;;;5090960;28;20458;-51
2022/05/28 01:19:22;;;;;;;;;;;13.10;99.90;;;;;;5091380;28;19908;-55
2022/05/28 01:21:51;;;;;;;;;;;13.20;99.90;;;;;;5095138;28;19923;-50
2022/05/28 01:24:36;;;;;;;;;;;13.20;99.90;;;;;;5089633;28;20466;-55
2022/05/28 01:27:09;;;;;;;;;;;13.10;99.90;;;;;;5081253;28;19955;-52
2022/05/28 01:29:47;;;;;;;;;;;13.20;99.90;;;;;;5094223;28;19907;-54
2022/05/28 01:32:13;;;;;;;;;;;13.10;99.90;;;;;;5084727;28;19944;-53
2022/05/28 01:34:39;;;;;;;;;;;13.10;99.90;;;;;;5088184;28;19950;-52
2022/05/28 01:37:05;;;;;;;;;;;13.10;99.90;;;;;;5093970;28;19907;-54
2022/05/28 01:39:31;;;;;;;;;;;13.10;99.90;;;;;;5095551;28;20412;-50
2022/05/28 01:41:57;;;;;;;;;;;13.00;99.90;;;;;;5083874;28;20279;-50
2022/05/28 01:44:23;;;;;;;;;;;13.00;99.90;;;;;;5075297;28;19911;-55
2022/05/28 01:46:49;;;;;;;;;;;12.90;99.90;;;;;;5074585;28;20252;-54
2022/05/28 01:49:16;;;;;;;;;;;12.90;99.90;;;;;;5074743;28;19908;-49
2022/05/28 01:51:51;;;;;;;;;;;12.90;99.90;;;;;;5074092;28;19939;-52
2022/05/28 01:54:17;;;;;;;;;;;12.90;99.90;;;;;;5090169;28;19908;-51
2022/05/28 01:56:47;;;;;;;;;;;12.80;99.90;;;;;;5079022;28;20418;-52
2022/05/28 01:59:13;;;;;;;;;;;12.80;99.90;;;;;;5092874;28;19954;-55
2022/05/28 02:01:39;;;;;;;;;;;12.80;99.90;;;;;;5092489;28;19908;-53
2022/05/28 02:04:05;;;;;;;;;;;12.90;99.90;;;;;;5089191;28;19915;-50
2022/05/28 02:06:32;;;;;;;;;;;12.90;99.90;;;;;;5075123;28;19904;-51
2022/05/28 02:08:58;;;;;;;;;;;12.80;99.90;;;;;;5075688;28;19916;-54
2022/05/28 02:11:26;;;;;;;;;;;12.70;99.90;;;;;;5091952;28;19908;-53
2022/05/28 02:14:10;;;;;;;;;;;12.70;99.90;;;;;;5093786;28;19919;-53
2022/05/28 02:16:50;;;;;;;;;;;12.80;99.90;;;;;;5092355;28;19912;-56
2022/05/28 02:19:36;;;;;;;;;;;12.90;99.90;;;;;;5093591;28;20331;-54
2022/05/28 02:22:10;;;;;;;;;;;12.80;99.90;;;;;;5053910;28;19912;-51
2022/05/28 02:24:40;;;;;;;;;;;12.80;99.90;;;;;;5054949;28;19917;-49
2022/05/28 02:27:08;;;;;;;;;;;12.80;99.90;;;;;;5093576;28;20294;-54
2022/05/28 02:29:34;;;;;;;;;;;12.80;99.90;;;;;;5092804;28;20203;-49
2022/05/28 02:35:02;;;;;;;;;;;12.80;99.90;;;;;;5082621;28;19919;-49
2022/05/28 02:37:28;;;;;;;;;;;12.70;99.90;;;;;;5075098;28;19908;-51
2022/05/28 02:39:54;;;;;;;;;;;12.80;99.90;;;;;;5083355;28;19955;-49
2022/05/28 02:42:20;;;;;;;;;;;12.80;99.90;;;;;;5092041;28;19957;-51
2022/05/28 02:44:45;;;;;;;;;;;12.80;99.90;;;;;;5092042;28;19915;-47
2022/05/28 02:47:11;;;;;;;;;;;12.80;99.90;;;;;;5074237;28;19905;-51
2022/05/28 02:49:37;;;;;;;;;;;12.80;99.90;;;;;;5074696;28;19908;-50
2022/05/28 02:52:03;;;;;;;;;;;12.70;99.90;;;;;;5093594;28;19908;-50
2022/05/28 02:54:29;;;;;;;;;;;12.70;99.90;;;;;;5093530;28;19922;-54
2022/05/28 02:56:55;;;;;;;;;;;12.70;99.90;;;;;;5053376;28;20383;-52
2022/05/28 02:59:20;;;;;;;;;;;12.70;99.90;;;;;;5054134;28;19944;-53
2022/05/28 03:01:46;;;;;;;;;;;12.70;99.90;;;;;;5072716;28;19958;-53
2022/05/28 03:04:12;;;;;;;;;;;12.80;99.90;;;;;;5073953;28;19912;-54
2022/05/28 03:06:37;;;;;;;;;;;12.80;99.90;;;;;;5074125;28;20053;-53
2022/05/28 03:09:04;;;;;;;;;;;12.80;99.90;;;;;;5073724;28;20386;-52
2022/05/28 03:11:30;;;;;;;;;;;12.70;99.90;;;;;;5086486;28;19908;-52
2022/05/28 03:13:55;;;;;;;;;;;12.80;99.90;;;;;;5092983;28;19914;-54
2022/05/28 03:16:20;;;;;;;;;;;12.70;99.90;;;;;;5091793;28;20357;-54
2022/05/28 03:18:46;;;;;;;;;;;12.80;99.90;;;;;;5093534;28;19982;-56
2022/05/28 03:21:11;;;;;;;;;;;12.70;99.90;;;;;;5093266;28;19908;-53
2022/05/28 03:23:37;;;;;;;;;;;12.60;99.90;;;;;;5093596;28;19923;-53
2022/05/28 03:26:10;;;;;;;;;;;12.60;99.90;;;;;;5080540;28;19916;-54
2022/05/28 03:28:35;;;;;;;;;;;12.40;99.90;;;;;;5073635;28;20367;-56
2022/05/28 03:31:01;;;;;;;;;;;12.40;99.90;;;;;;5073341;28;19916;-48
2022/05/28 03:33:26;;;;;;;;;;;12.30;99.90;;;;;;5087587;28;19911;-52
2022/05/28 03:35:52;;;;;;;;;;;12.30;99.90;;;;;;5093103;28;19912;-53
2022/05/28 03:38:17;;;;;;;;;;;12.40;99.90;;;;;;5091226;28;19908;-50
2022/05/28 03:40:43;;;;;;;;;;;12.40;99.90;;;;;;5074174;28;19948;-48
2022/05/28 03:43:09;;;;;;;;;;;12.40;99.90;;;;;;5086059;28;20289;-54
2022/05/28 03:45:35;;;;;;;;;;;12.40;99.90;;;;;;5093093;28;19908;-51
2022/05/28 03:48:02;;;;;;;;;;;12.40;99.90;;;;;;5093237;28;19958;-53
2022/05/28 03:50:28;;;;;;;;;;;12.40;99.90;;;;;;5093013;28;19908;-51
2022/05/28 03:52:53;;;;;;;;;;;12.30;99.90;;;;;;5093220;28;19911;-53
2022/05/28 03:55:19;;;;;;;;;;;12.30;99.90;;;;;;5086654;28;19935;-53
2022/05/28 03:57:46;;;;;;;;;;;12.30;99.90;;;;;;5073035;28;19911;-52
2022/05/28 04:00:12;;;;;;;;;;;12.30;99.90;;;;;;5072977;28;19969;-55
2022/05/28 04:02:38;;;;;;;;;;;12.40;99.90;;;;;;5072932;28;19908;-51
2022/05/28 04:05:04;;;;;;;;;;;12.40;99.90;;;;;;5071813;28;19912;-53
2022/05/28 04:07:29;;;;;;;;;;;12.40;99.90;;;;;;5073288;28;19966;-53
2022/05/28 04:09:55;;;;;;;;;;;12.40;99.90;;;;;;5072242;28;19912;-52
2022/05/28 04:12:20;;;;;;;;;;;12.40;99.90;;;;;;5088276;28;19935;-54
2022/05/28 04:14:46;;;;;;;;;;;12.40;99.90;;;;;;5091686;28;19911;-52
2022/05/28 04:17:12;;;;;;;;;;;12.30;99.90;;;;;;5072661;28;19905;-54
2022/05/28 04:19:37;;;;;;;;;;;12.50;99.90;;;;;;5072275;28;19904;-56
2022/05/28 04:22:03;;;;;;;;;;;12.50;99.90;;;;;;5071918;28;20279;-51
2022/05/28 04:24:29;;;;;;;;;;;12.60;99.90;;;;;;5072381;28;20259;-54
2022/05/28 04:26:54;;;;;;;;;;;12.60;99.90;;;;;;5091762;28;19908;-55
2022/05/28 04:29:20;;;;;;;;;;;12.60;99.90;;;;;;5093084;28;19911;-52
2022/05/28 04:31:45;;;;;;;;;;;12.70;99.90;;;;;;5092028;28;19908;-50
2022/05/28 04:34:11;;;;;;;;;;;12.70;99.90;;;;;;5092247;28;19904;-52
2022/05/28 04:36:37;;;;;;;;;;;12.80;99.90;;;;;;5075803;28;19916;-52
2022/05/28 04:39:03;;;;;;;;;;;12.80;99.90;;;;;;5075687;28;19908;-53
2022/05/28 04:41:28;;;;;;;;;;;12.80;99.90;;;;;;5072332;28;19999;-54
2022/05/28 04:43:54;;;;;;;;;;;12.90;99.90;;;;;;5072786;28;19955;-55
2022/05/28 04:46:20;;;;;;;;;;;12.80;99.90;;;;;;5071911;28;19947;-54
2022/05/28 04:48:46;;;;;;;;;;;12.90;99.90;;;;;;5071542;28;19904;-55
2022/05/28 04:51:12;;;;;;;;;;;12.90;99.90;;;;;;5071837;28;20278;-54
2022/05/28 04:53:38;;;;;;;;;;;12.90;99.90;;;;;;5071285;28;19904;-54
2022/05/28 04:56:04;;;;;;;;;;;12.80;99.90;;;;;;5082835;28;19919;-50
2022/05/28 04:58:29;;;;;;;;;;;12.90;99.90;;;;;;5091633;28;19904;-53
2022/05/28 05:00:55;;;;;;;;;;;13.00;99.90;;;;;;5080062;28;19908;-55
2022/05/28 05:03:21;;;;;;;;;;;13.10;99.90;;;;;;5070635;28;20120;-53
2022/05/28 05:05:47;;;;;;;;;;;13.30;99.90;;;;;;5070711;28;19908;-53
2022/05/28 05:08:12;;;;;;;;;;;13.50;99.90;;;;;;5079252;28;19908;-50
2022/05/28 05:10:38;;;;;;;;;;;13.60;99.90;;;;;;5084472;28;20009;-51
2022/05/28 05:13:04;;;;;;;;;;;13.80;99.90;;;;;;5076618;28;20382;-52
2022/05/28 05:15:29;;;;;;;;;;;13.90;99.90;;;;;;5089966;28;19912;-50
2022/05/28 05:17:55;;;;;;;;;;;13.70;99.90;;;;;;5091879;28;19904;-55
2022/05/28 05:20:20;;;;;;;;;;;13.50;99.90;;;;;;5091803;28;20302;-55
2022/05/28 05:22:46;;;;;;;;;;;13.60;99.90;;;;;;5091626;28;19912;-53
2022/05/28 05:25:13;;;;;;;;;;;13.50;99.90;;;;;;5087030;28;19909;-54
2022/05/28 05:27:39;;;;;;;;;;;13.20;99.90;;;;;;5071891;28;20000;-55
2022/05/28 05:30:05;;;;;;;;;;;13.20;99.90;;;;;;5071641;28;19948;-56
2022/05/28 05:32:31;;;;;;;;;;;13.10;99.90;;;;;;5070101;28;19915;-53
2022/05/28 05:34:56;;;;;;;;;;;13.30;99.90;;;;;;5071532;28;19915;-51
2022/05/28 05:37:22;;;;;;;;;;;13.30;99.90;;;;;;5071771;28;19909;-53
2022/05/28 05:39:47;;;;;;;;;;;13.30;99.90;;;;;;5072673;28;20450;-56
2022/05/28 05:42:13;;;;;;;;;;;13.30;99.90;;;;;;5078665;28;20591;-54
2022/05/28 05:44:39;;;;;;;;;;;13.30;99.90;;;;;;5077039;28;20243;-56
2022/05/28 05:47:05;;;;;;;;;;;13.40;99.90;;;;;;5078736;28;20343;-55
2022/05/28 05:49:30;;;;;;;;;;;13.30;99.90;;;;;;5071122;28;19911;-51
2022/05/28 05:51:56;;;;;;;;;;;13.20;99.90;;;;;;5071154;28;20267;-55
2022/05/28 05:54:24;;;;;;;;;;;13.30;99.90;;;;;;5071173;28;19912;-56
2022/05/28 05:56:49;;;;;;;;;;;13.40;99.90;;;;;;5074184;28;19942;-53
2022/05/28 05:59:15;;;;;;;;;;;13.20;99.90;;;;;;5069348;28;19904;-55
2022/05/28 06:01:41;;;;;;;;;;;13.10;99.90;;;;;;5069760;28;20066;-53
2022/05/28 06:04:06;;;;;;;;;;;13.10;99.90;;;;;;5070401;28;19905;-52
2022/05/28 06:06:32;;;;;;;;;;;13.10;99.90;;;;;;5073781;28;19911;-55
2022/05/28 06:08:57;;;;;;;;;;;13.10;99.90;;;;;;5073656;28;20527;-57
2022/05/28 06:11:23;;;;;;;;;;;13.00;99.90;;;;;;5071995;28;19901;-53
2022/05/28 06:13:48;;;;;;;;;;;13.10;99.90;;;;;;5072986;28;19905;-56
2022/05/28 06:16:14;;;;;;;;;;;13.00;99.90;;;;;;5073452;28;19909;-56
2022/05/28 06:18:39;;;;;;;;;;;12.90;99.90;;;;;;5075283;28;19908;-54
2022/05/28 06:21:05;;;;;;;;;;;12.80;99.90;;;;;;5081825;28;19908;-57
2022/05/28 06:23:30;;;;;;;;;;;12.90;99.90;;;;;;5092379;28;20014;-49
2022/05/28 06:25:56;;;;;;;;;;;13.00;99.90;;;;;;5090464;28;19912;-54
2022/05/28 06:28:22;;;;;;;;;;;13.00;99.90;;;;;;5073364;28;19978;-54
2022/05/28 06:30:49;;;;;;;;;;;13.00;99.90;;;;;;5074156;28;20335;-56
2022/05/28 06:33:15;;;;;;;;;;;13.00;99.90;;;;;;5074560;28;19911;-54
2022/05/28 06:35:41;;;;;;;;;;;13.00;99.90;;;;;;5085893;28;19916;-51
2022/05/28 06:38:08;;;;;;;;;;;13.20;99.90;;;;;;5074970;28;19943;-55
2022/05/28 06:40:37;;;;;;;;;;;13.10;99.90;;;;;;5074445;28;19954;-55
2022/05/28 06:43:02;;;;;;;;;;;13.30;99.90;;;;;;5072837;28;19908;-53
2022/05/28 06:45:28;;;;;;;;;;;13.40;99.90;;;;;;5074430;28;19904;-53
2022/05/28 06:47:53;;;;;;;;;;;13.40;99.90;;;;;;5074248;28;19912;-54
2022/05/28 06:53:08;;;;;;;;;;;14.00;99.90;;;;;;5073970;28;20401;-54
2022/05/28 06:55:34;;;;;;;;;;;14.20;99.90;;;;;;5073775;28;19912;-56
2022/05/28 06:57:59;;;;;;;;;;;14.10;99.90;;;;;;5073600;28;20278;-56
2022/05/28 07:00:25;;;;;;;;;;;13.90;99.90;;;;;;5074047;28;20003;-52
2022/05/28 07:02:50;;;;;;;;;;;13.70;99.90;;;;;;5073790;28;19908;-53
2022/05/28 07:05:17;;;;;;;;;;;13.90;99.90;;;;;;5080189;28;20028;-56
2022/05/28 07:07:43;;;;;;;;;;;13.90;99.90;;;;;;5073535;28;19958;-54
2022/05/28 07:10:09;;;;;;;;;;;13.90;99.90;;;;;;5076136;28;19908;-54
2022/05/28 07:12:34;;;;;;;;;;;13.80;99.90;;;;;;5074806;28;20002;-53
2022/05/28 07:15:00;;;;;;;;;;;13.70;99.90;;;;;;5091897;28;20458;-53
2022/05/28 07:17:26;;;;;;;;;;;13.90;99.90;;;;;;5093840;28;19934;-53
2022/05/28 07:19:51;;;;;;;;;;;13.90;99.90;;;;;;5093791;28;19912;-53
2022/05/28 07:22:17;;;;;;;;;;;13.90;99.90;;;;;;5093534;28;20409;-52
2022/05/28 07:24:43;;;;;;;;;;;14.00;99.90;;;;;;5093670;28;20373;-57
2022/05/28 07:27:11;;;;;;;;;;;14.10;99.90;;;;;;5091357;28;20059;-54
2022/05/28 07:29:36;;;;;;;;;;;14.00;99.90;;;;;;5073333;28;19908;-54
2022/05/28 07:32:02;;;;;;;;;;;13.80;99.90;;;;;;5073217;28;19912;-51
2022/05/28 07:34:27;;;;;;;;;;;13.70;99.90;;;;;;5085172;28;19908;-53
2022/05/28 07:36:53;;;;;;;;;;;13.40;99.90;;;;;;5093206;28;20480;-51
2022/05/28 07:39:18;;;;;;;;;;;13.70;99.90;;;;;;5093511;28;19911;-54
2022/05/28 07:41:44;;;;;;;;;;;13.80;99.90;;;;;;5081447;28;19931;-61
2022/05/28 07:44:10;;;;;;;;;;;13.80;99.90;;;;;;5075955;28;19904;-54
2022/05/28 07:46:35;;;;;;;;;;;13.90;99.90;;;;;;5072946;28;19905;-50
2022/05/28 07:49:01;;;;;;;;;;;13.80;99.30;;;;;;5072336;28;19943;-49
2022/05/28 07:51:42;;;;;;;;;;;13.90;99.90;;;;;;5071893;28;19905;-49
2022/05/28 07:54:09;;;;;;;;;;;13.80;99.90;;;;;;5072867;28;19909;-54
2022/05/28 07:56:34;;;;;;;;;;;13.80;99.30;;;;;;5083835;28;19923;-47
2022/05/28 07:59:00;;;;;;;;;;;13.90;99.80;;;;;;5072439;28;19904;-52
2022/05/28 08:01:29;;;;;;;;;;;14.20;99.90;;;;;;5072600;28;19931;-48
2022/05/28 08:03:58;;;;;;;;;;;14.20;98.60;;;;;;5072428;28;20339;-54
2022/05/28 08:06:24;;;;;;;;;;;14.20;99.20;;;;;;5072136;28;20298;-53
2022/05/28 08:08:51;;;;;;;;;;;14.40;99.30;;;;;;5072078;28;19911;-51
2022/05/28 08:11:17;;;;;;;;;;;14.80;99.90;;;;;;5072230;28;19908;-54
2022/05/28 08:13:43;;;;;;;;;;;14.70;99.30;;;;;;5070993;28;19905;-53
2022/05/28 08:16:08;;;;;;;;;;;14.90;98.80;;;;;;5071845;28;19909;-56
2022/05/28 08:18:36;;;;;;;;;;;14.80;98.90;;;;;;5072152;28;20057;-56
2022/05/28 08:23:46;;;;;;;;;;;15.10;99.40;;;;;;5071919;28;20429;-55
2022/05/28 08:26:13;;;;;;;;;;;15.70;99.30;;;;;;5071992;28;19904;-55
2022/05/28 08:28:39;;;;;;;;;;;16.30;97.70;;;;;;5071633;28;19918;-54
2022/05/28 08:31:05;;;;;;;;;;;16.20;95.70;;;;;;5071598;28;19991;-50
2022/05/28 08:33:32;;;;;;;;;;;15.60;97.70;;;;;;5082517;28;20398;-54
2022/05/28 08:35:58;;;;;;;;;;;16.10;98.50;;;;;;5071860;28;19912;-54
2022/05/28 08:38:23;;;;;;;;;;;16.00;97.20;;;;;;5071929;28;20413;-55
2022/05/28 08:41:01;;;;;;;;;;;15.90;97.20;;;;;;5071418;28;19915;-50
2022/05/28 08:43:31;;;;;;;;;;;15.80;97.40;;;;;;5072174;28;19912;-55
2022/05/28 08:45:56;;;;;;;;;;;15.70;97.50;;;;;;5071973;28;19904;-54
2022/05/28 08:48:26;;;;;;;;;;;15.70;97.50;;;;;;5071992;28;19953;-53
2022/05/28 08:50:57;;;;;;;;;;;15.50;97.80;;;;;;5072771;28;19950;-55
2022/05/28 08:53:29;;;;;;;;;;;15.30;98.30;;;;;;5082550;28;19915;-55
2022/05/28 08:55:57;;;;;;;;;;;15.60;97.00;;;;;;5072016;28;19923;-56
2022/05/28 08:58:25;;;;;;;;;;;15.60;95.90;;;;;;5081687;28;20359;-55
2022/05/28 09:01:11;;;;;;;;;;;15.50;97.30;;;;;;5090896;28;19968;-54
2022/05/28 09:03:43;;;;;;;;;;;15.60;97.30;;;;;;5072308;28;20355;-54
2022/05/28 09:06:14;;;;;;;;;;;16.20;97.90;;;;;;5070829;28;19904;-54
2022/05/28 09:08:41;;;;;;;;;;;16.40;96.20;;;;;;5071310;28;19927;-56
2022/05/28 09:11:09;;;;;;;;;;;16.30;94.80;;;;;;5071505;28;19905;-55
2022/05/28 09:13:37;;;;;;;;;;;16.10;94.30;;;;;;5072078;28;19911;-54
2022/05/28 09:16:03;;;;;;;;;;;16.10;95.40;;;;;;5070035;28;19951;-52
2022/05/28 09:18:40;;;;;;;;;;;16.60;94.80;;;;;;5071753;28;19905;-56
2022/05/28 09:21:07;;;;;;;;;;;16.60;94.50;;;;;;5072119;28;19904;-56
2022/05/28 09:23:40;;;;;;;;;;;17.00;90.10;;;;;;5082532;28;19916;-51
2022/05/28 09:26:06;;;;;;;;;;;17.00;90.60;;;;;;5071459;28;20441;-56
2022/05/28 09:28:52;;;;;;;;;;;17.20;90.20;;;;;;5084012;28;19911;-56
2022/05/28 09:31:18;;;;;;;;;;;17.10;90.30;;;;;;5091095;28;19994;-55
2022/05/28 09:33:43;;;;;;;;;;;17.20;92.10;;;;;;5091172;28;19987;-53
2022/05/28 09:36:18;;;;;;;;;;;17.10;84.70;;;;;;5091668;28;19908;-56
2022/05/28 09:39:02;;;;;;;;;;;17.10;81.90;;;;;;5091529;28;19908;-55
2022/05/28 09:41:27;;;;;;;;;;;16.70;84.20;;;;;;5095146;28;20263;-53
2022/05/28 09:43:57;;;;;;;;;;;16.70;89.10;;;;;;5095106;28;19904;-56
2022/05/28 09:46:27;;;;;;;;;;;16.70;88.20;;;;;;5095087;28;20077;-55
2022/05/28 09:49:10;;;;;;;;;;;16.90;85.00;;;;;;5095349;28;19915;-55
2022/05/28 09:51:36;;;;;;;;;;;16.80;80.70;;;;;;5088269;28;20343;-57
2022/05/28 09:54:16;;;;;;;;;;;17.00;77.10;;;;;;5073453;28;19908;-56
2022/05/28 09:56:43;;;;;;;;;;;17.30;80.50;;;;;;5073807;28;20579;-54
2022/05/28 09:59:23;;;;;;;;;;;16.80;79.60;;;;;;5075058;28;19904;-52
2022/05/28 10:02:12;;;;;;;;;;;17.50;75.30;;;;;;5074901;28;20575;-51
2022/05/28 10:04:49;;;;;;;;;;;17.60;76.30;;;;;;5079982;28;19977;-56
2022/05/28 10:07:26;;;;;;;;;;;17.30;69.70;;;;;;5095209;28;19911;-55
2022/05/28 10:09:53;;;;;;;;;;;17.10;68.30;;;;;;5094720;28;19910;-56
2022/05/28 10:12:29;;;;;;;;;;;17.20;69.20;;;;;;5095405;28;19904;-54
2022/05/28 10:14:59;;;;;;;;;;;17.10;65.90;;;;;;5091767;28;19939;-55
2022/05/28 10:17:26;;;;;;;;;;;17.10;70.50;;;;;;5088410;28;19912;-54
2022/05/28 10:19:53;;;;;;;;;;;17.50;69.50;;;;;;5074515;28;19913;-56
2022/05/28 10:22:20;;;;;;;;;;;16.70;68.00;;;;;;5074720;28;19954;-53
2022/05/28 10:24:47;;;;;;;;;;;16.50;67.80;;;;;;5074482;28;20397;-55
2022/05/28 10:27:24;;;;;;;;;;;17.00;71.00;;;;;;5073299;28;20263;-56
2022/05/28 10:29:50;;;;;;;;;;;17.30;68.80;;;;;;5049896;28;19963;-55
2022/05/28 10:32:29;;;;;;;;;;;17.70;69.10;;;;;;5045028;28;20287;-53
2022/05/28 10:35:06;;;;;;;;;;;17.70;69.40;;;;;;5043648;28;20318;-55
2022/05/28 10:37:32;;;;;;;;;;;17.70;69.90;;;;;;5045882;28;20002;-51
2022/05/28 10:40:10;;;;;;;;;;;18.10;73.20;;;;;;5063218;28;20006;-53
2022/05/28 10:42:37;;;;;;;;;;;18.20;69.60;;;;;;5063766;28;19920;-55
2022/05/28 10:45:04;;;;;;;;;;;18.60;68.30;;;;;;5051084;28;19935;-53
2022/05/28 10:48:05;;;;;;;;;;;18.80;66.60;;;;;;5044072;28;19986;-55
2022/05/28 10:50:31;;;;;;;;;;;17.80;67.70;;;;;;5044891;28;19912;-56
2022/05/28 10:53:15;;;;;;;;;;;17.00;68.50;;;;;;5048819;28;19909;-55
2022/05/28 10:56:05;;;;;;;;;;;17.70;71.90;;;;;;5042790;28;19931;-56
2022/05/28 10:58:31;;;;;;;;;;;17.90;74.20;;;;;;5050963;28;20356;-53
2022/05/28 11:01:00;;;;;;;;;;;17.90;68.30;;;;;;5043627;28;19970;-49
2022/05/28 11:03:30;;;;;;;;;;;17.80;68.70;;;;;;5061444;28;19915;-56
2022/05/28 11:06:15;;;;;;;;;;;17.50;69.30;;;;;;5057368;28;20368;-49
2022/05/28 11:08:58;;;;;;;;;;;17.80;73.40;;;;;;5052751;28;19936;-55
2022/05/28 11:11:39;;;;;;;;;;;18.00;71.10;;;;;;5043873;28;20309;-47
2022/05/28 11:14:20;;;;;;;;;;;18.20;70.80;;;;;;5062103;28;20005;-49
2022/05/28 11:16:47;;;;;;;;;;;18.30;67.30;;;;;;5058054;28;19935;-50
2022/05/28 11:19:13;;;;;;;;;;;18.40;64.40;;;;;;5041471;28;19924;-52
2022/05/28 11:21:57;;;;;;;;;;;18.10;66.10;;;;;;5041559;28;19913;-49
2022/05/28 11:24:25;;;;;;;;;;;18.00;65.80;;;;;;5043466;28;19917;-50
2022/05/28 11:27:07;;;;;;;;;;;18.30;71.70;;;;;;5044598;28;19908;-49
2022/05/28 11:29:33;;;;;;;;;;;18.40;68.20;;;;;;5043434;28;19935;-49
2022/05/28 11:32:01;;;;;;;;;;;17.20;64.70;;;;;;5044991;28;19917;-51
2022/05/28 11:34:45;;;;;;;;;;;17.60;70.10;;;;;;5042499;28;19912;-47
2022/05/28 11:37:20;;;;;;;;;;;17.50;72.00;;;;;;5041650;28;19924;-49
2022/05/28 11:39:59;;;;;;;;;;;17.00;67.80;;;;;;5042652;28;20290;-49
2022/05/28 11:42:43;;;;;;;;;;;16.90;66.30;;;;;;5042380;28;20362;-49
2022/05/28 11:45:13;;;;;;;;;;;17.30;66.00;;;;;;5042253;28;19909;-49
2022/05/28 11:47:39;;;;;;;;;;;17.40;68.10;;;;;;5042415;28;19947;-48
2022/05/28 11:53:04;;;;;;;;;;;18.40;64.30;;;;;;5043400;28;19974;-52
2022/05/28 11:55:32;;;;;;;;;;;18.10;65.60;;;;;;5042614;28;19999;-52
2022/05/28 11:58:18;;;;;;;;;;;18.50;70.20;;;;;;5044621;28;19909;-52
2022/05/28 12:00:54;;;;;;;;;;;18.30;68.80;;;;;;5041012;28;19924;-55
2022/05/28 12:03:24;;;;;;;;;;;17.40;62.60;;;;;;5040713;28;19956;-52
2022/05/28 12:05:49;;;;;;;;;;;17.60;64.00;;;;;;5041015;28;19908;-54
2022/05/28 12:08:38;;;;;;;;;;;17.10;64.50;;;;;;5042839;28;19958;-53
2022/05/28 12:11:05;;;;;;;;;;;17.10;63.50;;;;;;5042890;28;21198;-54
2022/05/28 12:13:40;;;;;;;;;;;17.60;64.90;;;;;;5040613;28;19913;-56
2022/05/28 12:16:32;;;;;;;;;;;17.40;62.20;;;;;;5038838;28;19927;-54
2022/05/28 12:18:59;;;;;;;;;;;17.30;64.60;;;;;;5040881;28;19978;-50
2022/05/28 12:21:32;;;;;;;;;;;17.20;64.70;;;;;;5040643;28;19924;-55
2022/05/28 12:24:04;;;;;;;;;;;16.80;68.20;;;;;;5040159;28;19970;-50
2022/05/28 12:26:57;;;;;;;;;;;17.00;66.70;;;;;;5041262;28;19916;-53
2022/05/28 12:32:12;;;;;;;;;;;17.80;64.40;;;;;;5044231;28;20782;-54
2022/05/28 12:34:40;;;;;;;;;;;17.90;64.80;;;;;;5041485;28;19947;-56
2022/05/28 12:37:13;;;;;;;;;;;17.90;67.00;;;;;;5041029;28;19916;-53
2022/05/28 12:39:44;;;;;;;;;;;18.10;63.40;;;;;;5041611;28;19924;-56
2022/05/28 12:42:20;;;;;;;;;;;18.30;66.30;;;;;;5041437;28;19924;-53
2022/05/28 12:44:50;;;;;;;;;;;19.40;62.60;;;;;;5041008;28;20294;-52
2022/05/28 12:47:23;;;;;;;;;;;19.10;59.60;;;;;;5040080;28;20007;-51
2022/05/28 12:49:51;;;;;;;;;;;18.80;59.40;;;;;;5041086;28;19909;-52
2022/05/28 12:52:40;;;;;;;;;;;18.60;61.50;;;;;;5041206;28;19909;-51
2022/05/28 12:55:24;;;;;;;;;;;18.40;59.50;;;;;;5041362;28;20353;-51
2022/05/28 12:58:07;;;;;;;;;;;19.00;61.10;;;;;;5040099;28;19908;-55
2022/05/28 13:00:42;;;;;;;;;;;19.10;61.50;;;;;;5040319;28;19912;-54
2022/05/28 13:03:07;;;;;;;;;;;19.20;59.00;;;;;;5039141;28;19912;-54
2022/05/28 13:05:38;;;;;;;;;;;19.40;57.40;;;;;;5040363;28;19918;-52
2022/05/28 13:08:07;;;;;;;;;;;20.00;59.00;;;;;;5040203;28;19909;-55
2022/05/28 13:10:32;;;;;;;;;;;19.90;57.30;;;;;;5041060;28;19909;-52
2022/05/28 13:13:08;;;;;;;;;;;19.90;59.40;;;;;;5040823;28;19971;-55
2022/05/28 13:15:42;;;;;;;;;;;19.10;56.40;;;;;;5040560;28;19928;-52
2022/05/28 13:18:26;;;;;;;;;;;18.40;59.60;;;;;;5041434;28;19908;-56
2022/05/28 13:20:52;;;;;;;;;;;17.80;60.00;;;;;;5040382;28;20645;-54
2022/05/28 13:23:28;;;;;;;;;;;17.00;61.20;;;;;;5041249;28;19924;-54
2022/05/28 13:25:56;;;;;;;;;;;17.00;61.30;;;;;;5040391;28;20352;-53
2022/05/28 13:28:28;;;;;;;;;;;17.30;64.40;;;;;;5040773;28;19909;-52
2022/05/28 13:31:02;;;;;;;;;;;17.00;62.50;;;;;;5039444;28;19917;-51
2022/05/28 13:33:31;;;;;;;;;;;16.80;66.20;;;;;;5041600;28;20463;-49
2022/05/28 13:35:58;;;;;;;;;;;17.10;63.30;;;;;;5040644;28;19920;-50
2022/05/28 13:38:27;;;;;;;;;;;17.10;61.70;;;;;;5047648;28;19959;-55
2022/05/28 13:40:53;;;;;;;;;;;17.00;61.30;;;;;;5071292;28;20335;-55
2022/05/28 13:43:27;;;;;;;;;;;17.10;62.00;;;;;;5072502;28;19909;-55
2022/05/28 13:45:58;;;;;;;;;;;17.20;62.40;;;;;;5034940;28;19927;-54
2022/05/28 13:48:25;;;;;;;;;;;17.60;61.00;;;;;;5055832;28;19908;-54
2022/05/28 13:50:53;;;;;;;;;;;18.00;66.90;;;;;;5089043;28;19948;-53
2022/05/28 13:53:23;;;;;;;;;;;18.60;59.30;;;;;;5089431;28;19943;-53
2022/05/28 13:55:55;;;;;;;;;;;18.80;58.90;;;;;;5091168;28;19953;-56
2022/05/28 13:58:22;;;;;;;;;;;18.50;57.90;;;;;;5083867;28;19912;-53
2022/05/28 14:00:52;;;;;;;;;;;18.30;59.90;;;;;;5070963;28;19904;-53
2022/05/28 14:03:23;;;;;;;;;;;18.20;59.90;;;;;;5069701;28;19901;-53
2022/05/28 14:05:49;;;;;;;;;;;18.40;58.80;;;;;;5070415;28;19904;-57
2022/05/28 14:08:35;;;;;;;;;;;18.90;59.70;;;;;;5076304;28;20004;-53
2022/05/28 14:11:07;;;;;;;;;;;19.00;58.50;;;;;;5085612;28;19908;-56
2022/05/28 14:13:34;;;;;;;;;;;19.50;58.30;;;;;;5090503;28;19946;-56
2022/05/28 14:16:00;;;;;;;;;;;20.50;57.00;;;;;;5055874;28;21188;-57
2022/05/28 14:18:28;;;;;;;;;;;21.40;57.30;;;;;;5034501;28;19916;-56
2022/05/28 14:21:09;;;;;;;;;;;21.80;56.10;;;;;;5054598;28;19908;-56
2022/05/28 14:23:39;;;;;;;;;;;21.40;52.50;;;;;;5059296;28;20539;-57
2022/05/28 14:26:05;;;;;;;;;;;21.10;53.00;;;;;;5061090;28;19909;-54
2022/05/28 14:28:31;;;;;;;;;;;20.30;54.00;;;;;;5063679;28;19946;-56
2022/05/28 14:30:57;;;;;;;;;;;19.80;53.20;;;;;;5062678;28;19954;-55
2022/05/28 14:33:31;;;;;;;;;;;19.40;55.50;;;;;;5055937;28;19916;-56
2022/05/28 14:36:09;;;;;;;;;;;18.80;56.00;;;;;;5062647;28;19918;-53
2022/05/28 14:38:34;;;;;;;;;;;18.50;55.20;;;;;;5050750;28;19909;-52
2022/05/28 14:41:01;;;;;;;;;;;19.20;55.60;;;;;;5043218;28;19979;-57